createdAt,value
2022-08-28T00:04:22.595Z,63.99
2022-08-28T00:09:26.351Z,64.04
2022-08-28T00:14:29.962Z,64.08
2022-08-28T00:19:38.529Z,64.72
2022-08-28T00:24:43.444Z,65.51
2022-08-28T00:29:47.047Z,65.36
2022-08-28T00:34:51.445Z,64.88
2022-08-28T00:39:55.685Z,64.64
2022-08-28T00:45:00.303Z,64.61
2022-08-28T00:50:07.034Z,64.67
2022-08-28T00:55:19.581Z,64.64
2022-08-28T01:00:35.152Z,64.65
2022-08-28T01:05:43.931Z,64.78
2022-08-28T01:10:54.526Z,64.92
2022-08-28T01:15:59.638Z,66.21
2022-08-28T01:21:20.184Z,66.01
2022-08-28T01:26:28.615Z,66.15
2022-08-28T01:31:33.399Z,66.16
2022-08-28T01:36:38.002Z,66.01
2022-08-28T01:41:46.727Z,66.00
2022-08-28T01:46:56.313Z,66.25
2022-08-28T01:52:01.144Z,66.41
2022-08-28T01:57:07.124Z,66.49
2022-08-28T02:02:11.253Z,66.56
2022-08-28T02:07:15.383Z,66.65
2022-08-28T02:12:18.967Z,66.33
2022-08-28T02:17:22.618Z,66.11
2022-08-28T02:22:26.871Z,66.00
2022-08-28T02:27:31.344Z,65.52
2022-08-28T02:32:35.628Z,65.21
2022-08-28T02:37:40.168Z,64.96
2022-08-28T02:42:44.857Z,64.78
2022-08-28T02:47:52.450Z,64.64
2022-08-28T02:52:56.582Z,64.80
2022-08-28T02:58:00.525Z,64.93
2022-08-28T03:03:04.201Z,65.24
2022-08-28T03:08:08.232Z,65.63
2022-08-28T03:13:11.952Z,65.92
2022-08-28T03:18:30.662Z,66.08
2022-08-28T03:23:34.852Z,66.14
2022-08-28T03:28:44.152Z,66.25
2022-08-28T03:33:48.852Z,66.54
2022-08-28T03:38:56.029Z,66.54
2022-08-28T03:44:02.034Z,66.95
2022-08-28T03:49:06.529Z,67.18
2022-08-28T03:54:10.054Z,67.30
2022-08-28T03:59:13.696Z,67.18
2022-08-28T04:04:17.315Z,67.03
2022-08-28T04:09:20.935Z,66.84
2022-08-28T04:14:24.425Z,66.61
2022-08-28T04:19:28.170Z,67.00
2022-08-28T04:24:31.941Z,67.19
2022-08-28T04:29:35.612Z,67.00
2022-08-28T04:34:39.542Z,67.27
2022-08-28T04:39:43.150Z,67.36
2022-08-28T04:44:46.774Z,67.31
2022-08-28T04:49:50.615Z,67.34
2022-08-28T04:54:54.629Z,67.24
2022-08-28T04:59:59.160Z,67.04
2022-08-28T05:05:03.610Z,66.67
2022-08-28T05:10:08.291Z,66.39
2022-08-28T05:15:12.050Z,66.11
2022-08-28T05:20:15.666Z,65.80
2022-08-28T05:25:19.615Z,65.44
2022-08-28T05:30:23.540Z,65.15
2022-08-28T05:35:28.550Z,65.46
2022-08-28T05:40:32.616Z,65.01
2022-08-28T05:45:36.722Z,64.83
2022-08-28T05:50:47.162Z,64.12
2022-08-28T05:55:51.831Z,63.81
2022-08-28T06:01:03.915Z,64.07
2022-08-28T06:06:09.762Z,64.18
2022-08-28T06:11:13.810Z,64.04
2022-08-28T06:16:19.445Z,63.69
2022-08-28T06:21:24.286Z,63.13
2022-08-28T06:26:27.969Z,62.67
2022-08-28T06:31:33.466Z,61.99
2022-08-28T06:36:45.289Z,61.61
2022-08-28T06:41:48.960Z,61.17
2022-08-28T06:46:54.686Z,60.99
2022-08-28T06:51:58.226Z,60.48
2022-08-28T06:57:01.811Z,59.99
2022-08-28T07:02:06.856Z,59.80
2022-08-28T07:07:15.692Z,59.78
2022-08-28T07:12:36.130Z,59.42
2022-08-28T07:17:40.050Z,59.03
2022-08-28T07:22:44.181Z,58.94
2022-08-28T07:27:48.722Z,58.79
2022-08-28T07:32:52.650Z,58.52
2022-08-28T07:37:56.575Z,58.07
2022-08-28T07:43:18.426Z,57.65
2022-08-28T07:48:22.447Z,57.24
2022-08-28T07:53:26.631Z,57.08
2022-08-28T07:58:30.314Z,56.58
2022-08-28T08:03:34.038Z,56.17
2022-08-28T08:08:37.742Z,55.50
2022-08-28T08:13:41.884Z,54.75
2022-08-28T08:18:48.561Z,53.96
2022-08-28T08:23:52.459Z,52.87
2022-08-28T08:28:57.232Z,52.51
2022-08-28T08:34:04.849Z,51.65
2022-08-28T08:39:09.759Z,51.56
2022-08-28T08:44:22.222Z,51.33
2022-08-28T08:49:40.586Z,50.59
2022-08-28T08:55:02.032Z,50.02
2022-08-28T09:00:15.679Z,48.99
2022-08-28T09:05:26.760Z,48.67
2022-08-28T09:10:48.593Z,48.40
2022-08-28T09:15:52.661Z,48.24
2022-08-28T09:21:00.255Z,47.85
2022-08-28T09:26:12.930Z,47.31
2022-08-28T09:31:37.064Z,46.56
2022-08-28T09:36:40.809Z,45.90
2022-08-28T09:42:05.831Z,45.04
2022-08-28T09:47:09.551Z,44.35
2022-08-28T09:52:25.111Z,44.03
2022-08-28T09:57:29.079Z,43.01
2022-08-28T10:02:58.584Z,42.07
2022-08-28T10:08:29.761Z,41.22
2022-08-28T10:14:00.211Z,40.21
2022-08-28T10:19:39.492Z,38.67
2022-08-28T10:25:27.218Z,39.07
2022-08-28T10:30:36.182Z,39.08
2022-08-28T10:35:51.797Z,38.62
2022-08-28T10:41:05.018Z,37.31
2022-08-28T10:46:44.408Z,37.06
2022-08-28T10:51:58.524Z,36.78
2022-08-28T10:57:23.548Z,37.29
2022-08-28T11:02:30.317Z,37.26
2022-08-28T11:07:51.336Z,35.97
2022-08-28T11:12:55.605Z,36.22
2022-08-28T11:18:14.268Z,35.94
2022-08-28T11:23:25.365Z,36.10
2022-08-28T11:28:35.639Z,35.88
2022-08-28T11:33:44.826Z,36.15
2022-08-28T11:38:58.133Z,36.02
2022-08-28T11:44:13.449Z,36.16
2022-08-28T11:49:32.413Z,34.69
2022-08-28T11:54:54.658Z,34.17
2022-08-28T12:00:31.141Z,34.08
2022-08-28T12:05:34.637Z,33.72
2022-08-28T12:10:38.144Z,33.81
2022-08-28T12:15:43.359Z,34.12
2022-08-28T12:21:13.029Z,33.85
2022-08-28T12:26:38.930Z,33.76
2022-08-28T12:32:14.866Z,34.03
2022-08-28T12:37:30.384Z,34.31
2022-08-28T12:42:40.381Z,34.04
2022-08-28T12:47:46.016Z,33.65
2022-08-28T12:52:54.855Z,33.60
2022-08-28T12:57:58.971Z,33.39
2022-08-28T13:03:03.934Z,34.11
2022-08-28T13:08:13.080Z,34.80
2022-08-28T13:13:31.140Z,34.81
2022-08-28T13:18:55.441Z,33.99
2022-08-28T13:24:23.948Z,34.60
2022-08-28T13:29:28.383Z,34.27
2022-08-28T13:34:37.229Z,34.67
2022-08-28T13:39:40.846Z,34.62
2022-08-28T13:44:57.155Z,34.58
2022-08-28T13:50:00.784Z,34.68
2022-08-28T13:55:05.739Z,35.01
2022-08-28T14:00:12.559Z,35.45
2022-08-28T14:05:16.450Z,35.57
2022-08-28T14:10:20.371Z,35.57
2022-08-28T14:15:23.993Z,35.36
2022-08-28T14:20:29.329Z,35.38
2022-08-28T14:25:35.909Z,35.99
2022-08-28T14:30:49.498Z,35.85
2022-08-28T14:35:53.322Z,37.17
2022-08-28T14:40:57.153Z,38.44
2022-08-28T14:46:00.952Z,38.58
2022-08-28T14:51:04.951Z,39.17
2022-08-28T14:56:09.554Z,39.08
2022-08-28T15:01:25.296Z,39.44
2022-08-28T15:06:41.573Z,39.72
2022-08-28T15:11:45.655Z,39.60
2022-08-28T15:16:49.892Z,39.62
2022-08-28T15:21:56.365Z,39.90
2022-08-28T15:27:00.736Z,41.17
2022-08-28T15:32:05.098Z,41.67
2022-08-28T15:37:08.727Z,41.35
2022-08-28T15:42:12.918Z,40.95
2022-08-28T15:47:16.803Z,40.62
2022-08-28T15:52:20.584Z,40.67
2022-08-28T15:57:24.883Z,41.27
2022-08-28T16:02:28.780Z,44.14
2022-08-28T16:07:32.548Z,46.58
2022-08-28T16:12:40.429Z,48.79
2022-08-28T16:17:44.082Z,50.51
2022-08-28T16:22:47.825Z,54.13
2022-08-28T16:27:51.670Z,55.83
2022-08-28T16:32:55.144Z,57.28
2022-08-28T16:37:59.277Z,58.02
2022-08-28T16:43:02.902Z,60.08
2022-08-28T16:48:06.633Z,63.01
2022-08-28T16:53:12.244Z,63.17
2022-08-28T16:58:17.161Z,63.88
2022-08-28T17:03:26.194Z,66.09
2022-08-28T17:08:30.405Z,67.21
2022-08-28T17:13:35.877Z,67.31
2022-08-28T17:18:48.242Z,67.79
2022-08-28T17:23:57.656Z,67.95
2022-08-28T17:29:01.488Z,68.39
2022-08-28T17:34:07.640Z,68.94
2022-08-28T17:39:16.695Z,69.68
2022-08-28T17:44:20.696Z,69.96
2022-08-28T17:49:24.335Z,70.49
2022-08-28T17:54:28.497Z,70.61
2022-08-28T17:59:33.099Z,71.07
2022-08-28T18:04:37.226Z,71.10
2022-08-28T18:09:41.177Z,71.45
2022-08-28T18:14:44.892Z,71.56
2022-08-28T18:19:48.613Z,71.77
2022-08-28T18:24:53.256Z,71.75
2022-08-28T18:29:56.980Z,72.29
2022-08-28T18:35:00.597Z,72.26
2022-08-28T18:40:05.567Z,72.58
2022-08-28T18:45:10.542Z,72.68
2022-08-28T18:50:14.459Z,72.68
2022-08-28T18:55:20.394Z,72.87
2022-08-28T19:00:25.566Z,72.96
2022-08-28T19:05:29.316Z,73.13
2022-08-28T19:10:34.891Z,73.14
2022-08-28T19:15:39.049Z,73.40
2022-08-28T19:20:42.893Z,73.39
2022-08-28T19:25:46.905Z,73.46
2022-08-28T19:30:50.817Z,73.46
2022-08-28T19:35:55.382Z,73.67
2022-08-28T19:40:59.413Z,74.10
2022-08-28T19:46:10.451Z,73.92
2022-08-28T19:51:25.067Z,74.09
2022-08-28T19:56:31.876Z,74.08
2022-08-28T20:01:41.211Z,74.09
2022-08-28T20:06:46.106Z,74.13
2022-08-28T20:11:50.150Z,74.07
2022-08-28T20:16:55.466Z,74.20
2022-08-28T20:21:59.079Z,74.25
2022-08-28T20:27:02.804Z,74.19
2022-08-28T20:32:06.932Z,74.29
2022-08-28T20:37:10.764Z,74.43
2022-08-28T20:42:14.679Z,74.32
2022-08-28T20:47:19.082Z,74.39
2022-08-28T20:52:23.582Z,74.46
2022-08-28T20:57:27.610Z,74.83
2022-08-28T21:02:31.689Z,74.90
2022-08-28T21:07:35.647Z,75.17
2022-08-28T21:12:40.444Z,75.61
2022-08-28T21:17:44.208Z,75.70
2022-08-28T21:22:49.297Z,75.82
2022-08-28T21:27:53.582Z,75.79
2022-08-28T21:32:57.199Z,76.31
2022-08-28T21:38:00.700Z,76.73
2022-08-28T21:43:04.450Z,76.95
2022-08-28T21:48:08.337Z,77.47
2022-08-28T21:53:12.138Z,77.79
2022-08-28T21:58:18.701Z,78.14
2022-08-28T22:03:22.849Z,78.63
2022-08-28T22:08:28.781Z,78.93
2022-08-28T22:13:32.508Z,79.71
2022-08-28T22:18:37.258Z,79.79
2022-08-28T22:23:41.781Z,79.76
2022-08-28T22:28:46.632Z,79.71
2022-08-28T22:33:50.875Z,80.22
2022-08-28T22:38:56.183Z,80.93
2022-08-28T22:43:59.860Z,81.71
2022-08-28T22:49:04.696Z,82.16
2022-08-28T22:54:08.758Z,82.64
2022-08-28T22:59:12.453Z,82.39
2022-08-28T23:04:16.552Z,82.48
2022-08-28T23:09:23.516Z,82.82
2022-08-28T23:14:27.142Z,82.44
2022-08-28T23:19:31.232Z,82.45
2022-08-28T23:24:38.483Z,82.65
2022-08-28T23:29:42.053Z,82.64
2022-08-28T23:34:45.668Z,82.69
2022-08-28T23:39:49.882Z,82.48
2022-08-28T23:44:54.532Z,82.31
2022-08-28T23:49:58.371Z,82.35
2022-08-28T23:55:03.313Z,82.21
